createdAt,value
2022-09-11T00:01:50.432Z,99060.94
2022-09-11T00:04:18.913Z,99060.94
2022-09-11T00:06:47.378Z,99053.75
2022-09-11T00:09:15.811Z,99050.97
2022-09-11T00:11:47.577Z,99054.06
2022-09-11T00:14:17.359Z,99056.03
2022-09-11T00:16:47.600Z,99046.03
2022-09-11T00:19:19.193Z,99049.97
2022-09-11T00:21:49.277Z,99051.13
2022-09-11T00:24:17.941Z,99055.88
2022-09-11T00:26:49.468Z,99045.88
2022-09-11T00:29:19.810Z,99049.00
2022-09-11T00:31:49.225Z,99050.66
2022-09-11T00:34:17.623Z,99055.75
2022-09-11T00:36:46.284Z,99061.81
2022-09-11T00:39:15.540Z,99052.97
2022-09-11T00:41:46.384Z,99059.66
2022-09-11T00:45:01.989Z,99050.66
2022-09-11T00:47:32.345Z,99051.47
2022-09-11T00:50:13.936Z,99049.84
2022-09-11T00:52:53.133Z,99048.69
2022-09-11T00:55:26.841Z,99049.50
2022-09-11T00:58:00.410Z,99050.81
2022-09-11T01:00:30.445Z,99052.13
2022-09-11T01:02:59.403Z,99043.91
2022-09-11T01:05:32.367Z,99051.13
2022-09-11T01:08:00.758Z,99048.84
2022-09-11T01:10:41.435Z,99049.19
2022-09-11T01:13:17.590Z,99034.06
2022-09-11T01:16:04.280Z,99043.09
2022-09-11T01:18:38.605Z,99033.59
2022-09-11T01:21:37.408Z,99038.19
2022-09-11T01:24:24.666Z,99032.78
2022-09-11T01:27:39.536Z,99029.31
2022-09-11T01:30:13.169Z,99030.47
2022-09-11T01:33:15.890Z,99027.81
2022-09-11T01:35:57.140Z,99020.88
2022-09-11T01:38:37.815Z,99031.53
2022-09-11T01:41:11.709Z,99033.34
2022-09-11T01:43:47.817Z,99031.50
2022-09-11T01:46:23.169Z,99031.16
2022-09-11T01:48:59.566Z,99034.41
2022-09-11T01:51:32.404Z,99029.66
2022-09-11T01:54:03.582Z,99047.69
2022-09-11T01:56:37.307Z,99043.25
2022-09-11T01:59:13.528Z,99039.69
2022-09-11T02:01:51.420Z,99038.84
2022-09-11T02:04:24.784Z,99039.69
2022-09-11T02:06:59.904Z,99034.41
2022-09-11T02:09:34.993Z,99033.94
2022-09-11T02:12:09.109Z,99032.63
2022-09-11T02:14:42.675Z,99031.34
2022-09-11T02:17:19.032Z,99028.53
2022-09-11T02:19:47.402Z,99033.34
2022-09-11T02:22:15.830Z,99024.13
2022-09-11T02:24:44.284Z,99032.03
2022-09-11T02:27:18.376Z,99018.09
2022-09-11T02:29:47.248Z,99022.66
2022-09-11T02:32:18.812Z,99016.72
2022-09-11T02:34:48.520Z,99014.91
2022-09-11T02:37:39.588Z,99016.56
2022-09-11T02:40:42.365Z,99007.38
2022-09-11T02:43:43.878Z,99018.69
2022-09-11T02:46:44.527Z,99011.63
2022-09-11T02:49:26.252Z,99014.53
2022-09-11T02:52:04.745Z,99017.47
2022-09-11T02:54:49.472Z,99017.81
2022-09-11T02:57:25.088Z,99018.28
2022-09-11T02:59:57.518Z,99017.47
2022-09-11T03:02:28.862Z,99006.84
2022-09-11T03:04:59.193Z,99021.94
2022-09-11T03:07:27.720Z,99020.44
2022-09-11T03:09:56.119Z,99020.44
2022-09-11T03:12:24.793Z,99004.53
2022-09-11T03:14:53.693Z,99022.06
2022-09-11T03:17:22.138Z,99027.31
2022-09-11T03:19:50.688Z,99027.31
2022-09-11T03:22:20.467Z,99024.53
2022-09-11T03:24:49.243Z,99028.16
2022-09-11T03:27:17.628Z,99023.34
2022-09-11T03:29:46.544Z,99031.72
2022-09-11T03:32:16.196Z,99029.75
2022-09-11T03:34:44.584Z,99025.34
2022-09-11T03:37:12.925Z,99024.06
2022-09-11T03:39:43.539Z,99035.00
2022-09-11T03:42:13.095Z,99036.97
2022-09-11T03:44:41.647Z,99039.28
2022-09-11T03:47:10.021Z,99034.88
2022-09-11T03:49:38.434Z,99034.41
2022-09-11T03:52:07.349Z,99025.56
2022-09-11T03:54:35.753Z,99032.63
2022-09-11T03:57:06.792Z,99025.75
2022-09-11T03:59:35.333Z,99024.09
2022-09-11T04:02:03.779Z,99012.94
2022-09-11T04:04:32.977Z,99017.69
2022-09-11T04:07:01.390Z,99020.47
2022-09-11T04:09:31.507Z,99014.59
2022-09-11T04:11:59.982Z,99017.03
2022-09-11T04:14:29.853Z,99017.50
2022-09-11T04:16:58.808Z,99014.72
2022-09-11T04:19:27.258Z,99012.41
2022-09-11T04:21:55.661Z,99016.84
2022-09-11T04:24:24.030Z,99008.47
2022-09-11T04:26:53.662Z,99011.63
2022-09-11T04:29:24.284Z,99017.19
2022-09-11T04:31:54.185Z,99015.53
2022-09-11T04:34:22.882Z,99012.94
2022-09-11T04:36:51.330Z,99020.34
2022-09-11T04:39:19.687Z,99012.50
2022-09-11T04:41:48.400Z,99008.72
2022-09-11T04:44:16.860Z,99014.19
2022-09-11T04:46:45.298Z,99005.81
2022-09-11T04:49:15.768Z,99005.16
2022-09-11T04:51:45.292Z,99001.69
2022-09-11T04:54:16.373Z,99009.38
2022-09-11T04:56:45.452Z,99009.19
2022-09-11T04:59:17.984Z,98999.00
2022-09-11T05:01:47.665Z,98998.00
2022-09-11T05:04:22.890Z,99003.25
2022-09-11T05:06:53.810Z,98995.84
2022-09-11T05:09:22.208Z,99004.84
2022-09-11T05:11:50.592Z,98999.91
2022-09-11T05:14:19.085Z,98993.31
2022-09-11T05:16:47.568Z,98991.81
2022-09-11T05:19:17.438Z,99005.09
2022-09-11T05:21:45.858Z,99006.06
2022-09-11T05:24:14.253Z,99000.28
2022-09-11T05:26:42.673Z,99004.03
2022-09-11T05:29:15.574Z,99003.34
2022-09-11T05:31:44.107Z,99007.56
2022-09-11T05:34:12.504Z,99010.63
2022-09-11T05:36:42.256Z,99018.13
2022-09-11T05:39:11.106Z,99018.41
2022-09-11T05:41:39.667Z,99016.56
2022-09-11T05:44:08.365Z,99015.88
2022-09-11T05:46:36.755Z,99021.94
2022-09-11T05:49:05.509Z,99018.34
2022-09-11T05:51:35.848Z,99025.22
2022-09-11T05:54:06.168Z,99022.56
2022-09-11T05:56:34.840Z,99025.84
2022-09-11T05:59:03.536Z,99015.31
2022-09-11T06:01:32.152Z,99019.84
2022-09-11T06:04:02.777Z,99027.22
2022-09-11T06:06:32.244Z,99035.03
2022-09-11T06:09:00.683Z,99039.94
2022-09-11T06:11:31.011Z,99024.13
2022-09-11T06:13:59.415Z,99021.13
2022-09-11T06:16:29.268Z,99027.66
2022-09-11T06:18:57.715Z,99036.75
2022-09-11T06:21:29.255Z,99037.38
2022-09-11T06:23:57.748Z,99044.84
2022-09-11T06:26:27.590Z,99047.41
2022-09-11T06:28:58.010Z,99044.41
2022-09-11T06:31:28.146Z,99046.84
2022-09-11T06:33:56.587Z,99047.13
2022-09-11T06:36:27.715Z,99049.56
2022-09-11T06:38:56.928Z,99050.53
2022-09-11T06:41:27.587Z,99053.78
2022-09-11T06:43:57.566Z,99048.22
2022-09-11T06:46:27.187Z,99047.03
2022-09-11T06:48:57.676Z,99041.44
2022-09-11T06:51:27.119Z,99036.31
2022-09-11T06:53:58.151Z,99043.91
2022-09-11T06:56:30.523Z,99049.50
2022-09-11T06:59:00.590Z,99049.13
2022-09-11T07:01:29.563Z,99055.19
2022-09-11T07:03:58.075Z,99050.44
2022-09-11T07:06:28.993Z,99055.56
2022-09-11T07:09:00.973Z,99052.75
2022-09-11T07:11:32.355Z,99049.13
2022-09-11T07:14:05.721Z,99055.88
2022-09-11T07:16:34.844Z,99053.09
2022-09-11T07:19:04.388Z,99051.56
2022-09-11T07:21:35.615Z,99046.81
2022-09-11T07:24:05.105Z,99048.56
2022-09-11T07:26:33.559Z,99042.59
2022-09-11T07:29:03.774Z,99048.69
2022-09-11T07:31:34.521Z,99049.28
2022-09-11T07:34:04.015Z,99047.19
2022-09-11T07:36:34.886Z,99049.88
2022-09-11T07:39:04.775Z,99051.75
2022-09-11T07:41:33.245Z,99043.34
2022-09-11T07:44:04.340Z,99056.78
2022-09-11T07:46:33.033Z,99051.38
2022-09-11T07:49:03.017Z,99057.78
2022-09-11T07:51:31.415Z,99056.72
2022-09-11T07:54:01.265Z,99064.31
2022-09-11T07:56:31.240Z,99063.94
2022-09-11T07:58:59.601Z,99073.16
2022-09-11T08:01:33.382Z,99073.06
2022-09-11T08:04:04.761Z,99065.94
2022-09-11T08:06:35.669Z,99067.66
2022-09-11T08:09:07.732Z,99057.44
2022-09-11T08:11:39.921Z,99046.72
2022-09-11T08:14:09.021Z,99067.22
2022-09-11T08:16:38.970Z,99051.72
2022-09-11T08:19:09.069Z,99060.16
2022-09-11T08:21:37.657Z,99061.78
2022-09-11T08:24:07.303Z,99066.88
2022-09-11T08:26:38.491Z,99070.56
2022-09-11T08:29:07.041Z,99074.19
2022-09-11T08:31:35.724Z,99074.00
2022-09-11T08:34:05.674Z,99078.34
2022-09-11T08:36:34.065Z,99070.22
2022-09-11T08:39:03.455Z,99067.22
2022-09-11T08:41:43.424Z,99081.25
2022-09-11T08:44:23.228Z,99069.31
2022-09-11T08:46:56.607Z,99076.31
2022-09-11T08:49:31.516Z,99080.84
2022-09-11T08:52:06.000Z,99075.00
2022-09-11T08:54:38.095Z,99085.69
2022-09-11T08:57:24.039Z,99080.63
2022-09-11T09:00:14.838Z,99077.34
2022-09-11T09:03:30.411Z,99077.47
2022-09-11T09:06:27.804Z,99069.78
2022-09-11T09:09:09.404Z,99065.41
2022-09-11T09:11:44.950Z,99075.13
2022-09-11T09:14:36.748Z,99060.78
2022-09-11T09:17:10.137Z,99054.66
2022-09-11T09:19:46.491Z,99053.25
2022-09-11T09:22:22.615Z,99048.56
2022-09-11T09:24:54.827Z,99052.28
2022-09-11T09:27:31.279Z,99065.41
2022-09-11T09:30:03.133Z,99059.34
2022-09-11T09:32:33.613Z,99048.75
2022-09-11T09:35:12.065Z,99051.38
2022-09-11T09:37:42.131Z,99031.09
2022-09-11T09:40:11.952Z,99061.25
2022-09-11T09:43:12.240Z,99056.19
2022-09-11T09:45:55.193Z,99069.75
2022-09-11T09:48:25.108Z,99074.31
2022-09-11T09:50:53.526Z,99077.94
2022-09-11T09:53:35.646Z,99081.38
2022-09-11T09:56:06.430Z,99085.19
2022-09-11T09:58:41.969Z,99078.75
2022-09-11T10:01:46.654Z,99084.28
2022-09-11T10:04:22.599Z,99092.72
2022-09-11T10:06:55.336Z,99103.03
2022-09-11T10:09:28.645Z,99091.13
2022-09-11T10:12:06.110Z,99098.59
2022-09-11T10:14:52.006Z,99099.13
2022-09-11T10:17:33.244Z,99103.53
2022-09-11T10:20:23.042Z,99105.81
2022-09-11T10:22:52.517Z,99105.59
2022-09-11T10:25:26.808Z,99103.56
2022-09-11T10:28:06.621Z,99097.72
2022-09-11T10:30:39.097Z,99097.81
2022-09-11T10:33:23.126Z,99097.78
2022-09-11T10:35:55.202Z,99091.28
2022-09-11T10:38:30.175Z,99086.44
2022-09-11T10:41:10.968Z,99093.50
2022-09-11T10:43:50.226Z,99088.50
2022-09-11T10:46:40.449Z,99075.22
2022-09-11T10:49:21.938Z,99085.13
2022-09-11T10:52:03.412Z,99077.06
2022-09-11T10:55:05.024Z,99068.91
2022-09-11T10:57:45.306Z,99065.28
2022-09-11T11:00:20.221Z,99066.91
2022-09-11T11:02:53.043Z,99072.28
2022-09-11T11:05:28.242Z,99065.94
2022-09-11T11:08:34.600Z,99070.66
2022-09-11T11:11:22.323Z,99074.09
2022-09-11T11:14:17.065Z,99067.56
2022-09-11T11:16:59.668Z,99062.59
2022-09-11T11:19:55.687Z,99070.00
2022-09-11T11:22:44.457Z,99057.63
2022-09-11T11:25:22.986Z,99061.63
2022-09-11T11:28:29.095Z,99058.56
2022-09-11T11:31:15.624Z,99055.72
2022-09-11T11:34:17.915Z,99056.06
2022-09-11T11:36:52.274Z,99048.56
2022-09-11T11:39:26.851Z,99060.63
2022-09-11T11:42:10.555Z,99057.75
2022-09-11T11:44:49.504Z,99051.38
2022-09-11T11:47:26.165Z,99053.09
2022-09-11T11:50:04.586Z,99061.59
2022-09-11T11:52:58.256Z,99047.81
2022-09-11T11:55:31.343Z,99049.09
2022-09-11T11:58:07.399Z,99056.53
2022-09-11T12:00:44.051Z,99051.88
2022-09-11T12:03:23.824Z,99039.41
2022-09-11T12:05:53.011Z,99058.13
2022-09-11T12:08:23.740Z,99067.03
2022-09-11T12:11:00.618Z,99061.47
2022-09-11T12:13:35.191Z,99057.84
2022-09-11T12:16:15.027Z,99067.13
2022-09-11T12:19:19.738Z,99059.56
2022-09-11T12:22:13.257Z,99058.81
2022-09-11T12:24:58.901Z,99062.69
2022-09-11T12:27:53.953Z,99064.00
2022-09-11T12:30:29.026Z,99066.50
2022-09-11T12:33:00.330Z,99065.69
2022-09-11T12:35:44.184Z,99061.53
2022-09-11T12:38:23.529Z,99050.19
2022-09-11T12:40:56.343Z,99041.31
2022-09-11T12:43:48.018Z,99046.44
2022-09-11T12:47:16.674Z,99040.34
2022-09-11T12:49:56.468Z,99044.97
2022-09-11T12:52:35.762Z,99042.31
2022-09-11T12:55:24.164Z,99032.31
2022-09-11T12:57:52.902Z,99018.94
2022-09-11T13:00:29.330Z,99007.34
2022-09-11T13:02:59.570Z,99002.53
2022-09-11T13:05:34.573Z,99013.84
2022-09-11T13:08:10.963Z,99006.84
2022-09-11T13:10:40.532Z,99003.09
2022-09-11T13:13:43.467Z,98999.44
2022-09-11T13:16:25.638Z,98987.31
2022-09-11T13:19:01.624Z,98981.63
2022-09-11T13:21:30.162Z,98979.28
2022-09-11T13:24:03.515Z,98989.34
2022-09-11T13:26:32.811Z,98990.84
2022-09-11T13:29:02.474Z,98984.25
2022-09-11T13:31:35.773Z,98986.19
2022-09-11T13:34:13.370Z,98981.06
2022-09-11T13:36:42.154Z,98996.88
2022-09-11T13:39:15.467Z,98999.75
2022-09-11T13:41:46.848Z,99012.19
2022-09-11T13:44:35.501Z,99003.84
2022-09-11T13:47:06.462Z,99008.22
2022-09-11T13:49:39.113Z,99004.31
2022-09-11T13:52:09.192Z,99003.47
2022-09-11T13:54:44.519Z,98991.25
2022-09-11T13:57:19.518Z,98983.22
2022-09-11T13:59:52.035Z,98988.63
2022-09-11T14:02:49.549Z,99011.06
2022-09-11T14:05:22.001Z,99012.38
2022-09-11T14:08:02.389Z,99031.78
2022-09-11T14:10:38.755Z,99021.97
2022-09-11T14:13:18.362Z,99027.94
2022-09-11T14:15:53.858Z,99016.94
2022-09-11T14:18:37.185Z,99028.78
2022-09-11T14:21:14.225Z,99027.88
2022-09-11T14:23:48.241Z,99024.47
2022-09-11T14:26:20.834Z,99022.50
2022-09-11T14:29:06.969Z,99026.19
2022-09-11T14:31:38.795Z,99022.63
2022-09-11T14:34:20.914Z,99032.31
2022-09-11T14:36:54.522Z,99031.50
2022-09-11T14:39:38.008Z,99028.50
2022-09-11T14:42:11.327Z,99030.28
2022-09-11T14:44:41.395Z,99019.59
2022-09-11T14:47:17.232Z,99019.75
2022-09-11T14:49:46.241Z,99013.50
2022-09-11T14:52:17.201Z,99024.13
2022-09-11T14:54:46.602Z,99020.69
2022-09-11T14:57:21.021Z,99017.28
2022-09-11T14:59:50.198Z,99023.91
2022-09-11T15:02:21.363Z,99029.72
2022-09-11T15:04:51.044Z,99027.78
2022-09-11T15:07:20.461Z,99034.34
2022-09-11T15:09:48.964Z,99029.28
2022-09-11T15:12:19.296Z,99024.59
2022-09-11T15:14:57.563Z,99025.19
2022-09-11T15:17:31.696Z,99019.34
2022-09-11T15:20:00.788Z,99017.28
2022-09-11T15:22:29.686Z,99006.03
2022-09-11T15:25:00.142Z,99009.28
2022-09-11T15:27:29.999Z,99011.59
2022-09-11T15:29:58.539Z,99021.19
2022-09-11T15:32:27.556Z,99000.97
2022-09-11T15:34:56.116Z,99005.66
2022-09-11T15:37:25.578Z,99020.41
2022-09-11T15:39:54.129Z,99030.28
2022-09-11T15:42:22.594Z,99042.19
2022-09-11T15:44:52.697Z,99058.75
2022-09-11T15:47:21.128Z,99077.63
2022-09-11T15:49:49.538Z,99107.13
2022-09-11T15:52:19.490Z,99129.44
2022-09-11T15:54:48.912Z,99165.66
2022-09-11T15:57:18.176Z,99163.22
2022-09-11T15:59:46.612Z,99161.16
2022-09-11T16:02:16.522Z,99152.63
2022-09-11T16:04:45.443Z,99149.66
2022-09-11T16:07:13.986Z,99155.00
2022-09-11T16:09:42.711Z,99154.66
2022-09-11T16:12:11.166Z,99156.59
2022-09-11T16:14:39.665Z,99162.09
2022-09-11T16:17:09.411Z,99174.75
2022-09-11T16:19:39.610Z,99177.41
2022-09-11T16:22:08.900Z,99174.97
2022-09-11T16:24:38.333Z,99168.72
2022-09-11T16:27:09.354Z,99167.09
2022-09-11T16:30:09.431Z,99166.94
2022-09-11T16:32:29.738Z,99159.59
2022-09-11T16:35:00.165Z,99159.97
2022-09-11T16:37:29.087Z,99164.41
2022-09-11T16:39:57.613Z,99165.53
2022-09-11T16:42:26.479Z,99170.44
2022-09-11T16:44:55.068Z,99167.19
2022-09-11T16:47:23.553Z,99170.78
2022-09-11T16:50:08.915Z,99166.03
2022-09-11T16:52:39.163Z,99164.09
2022-09-11T16:55:10.779Z,99156.53
2022-09-11T16:57:39.556Z,99167.00
2022-09-11T17:00:14.238Z,99159.50
2022-09-11T17:02:42.674Z,99163.72
2022-09-11T17:05:12.275Z,99157.16
2022-09-11T17:07:42.083Z,99151.78
2022-09-11T17:10:11.701Z,99150.59
2022-09-11T17:12:40.479Z,99152.56
2022-09-11T17:15:10.728Z,99149.28
2022-09-11T17:17:39.213Z,99154.06
2022-09-11T17:20:11.786Z,99152.75
2022-09-11T17:22:41.671Z,99157.84
2022-09-11T17:25:16.684Z,99159.31
2022-09-11T17:27:46.066Z,99156.53
2022-09-11T17:30:16.778Z,99160.94
2022-09-11T17:32:45.635Z,99159.13
2022-09-11T17:35:15.238Z,99159.66
2022-09-11T17:37:46.093Z,99164.53
2022-09-11T17:40:15.274Z,99167.16
2022-09-11T17:42:45.744Z,99174.88
2022-09-11T17:45:15.788Z,99181.41
2022-09-11T17:47:44.411Z,99178.78
2022-09-11T17:50:14.053Z,99176.66
2022-09-11T17:52:44.424Z,99174.03
2022-09-11T17:55:13.333Z,99178.91
2022-09-11T17:57:44.524Z,99178.28
2022-09-11T18:00:15.264Z,99180.72
2022-09-11T18:02:44.879Z,99186.78
2022-09-11T18:05:13.818Z,99186.47
2022-09-11T18:07:42.748Z,99204.50
2022-09-11T18:10:13.427Z,99197.13
2022-09-11T18:12:42.333Z,99197.47
2022-09-11T18:15:11.641Z,99202.56
2022-09-11T18:17:40.244Z,99202.25
2022-09-11T18:20:09.927Z,99209.94
2022-09-11T18:22:39.899Z,99209.81
2022-09-11T18:25:10.738Z,99197.16
2022-09-11T18:27:41.545Z,99209.63
2022-09-11T18:30:12.708Z,99199.97
2022-09-11T18:32:41.399Z,99206.19
2022-09-11T18:35:11.958Z,99205.69
2022-09-11T18:37:40.685Z,99218.00
2022-09-11T18:40:10.403Z,99214.38
2022-09-11T18:42:41.306Z,99219.13
2022-09-11T18:45:12.651Z,99206.34
2022-09-11T18:47:41.388Z,99201.94
2022-09-11T18:50:11.313Z,99207.84
2022-09-11T18:52:41.558Z,99209.81
2022-09-11T18:55:11.118Z,99210.78
2022-09-11T18:57:45.876Z,99199.28
2022-09-11T19:00:19.691Z,99214.47
2022-09-11T19:02:50.480Z,99214.66
2022-09-11T19:05:19.916Z,99213.16
2022-09-11T19:07:49.786Z,99211.97
2022-09-11T19:10:18.523Z,99223.28
2022-09-11T19:12:49.794Z,99223.44
2022-09-11T19:15:18.371Z,99221.28
2022-09-11T19:17:48.013Z,99219.69
2022-09-11T19:20:20.159Z,99221.63
2022-09-11T19:22:48.898Z,99228.31
2022-09-11T19:25:17.879Z,99226.69
2022-09-11T19:27:48.026Z,99227.84
2022-09-11T19:30:17.636Z,99226.22
2022-09-11T19:32:46.201Z,99226.22
2022-09-11T19:35:14.999Z,99229.00
2022-09-11T19:37:43.885Z,99227.34
2022-09-11T19:40:12.758Z,99238.47
2022-09-11T19:42:41.387Z,99227.34
2022-09-11T19:45:12.344Z,99232.28
2022-09-11T19:47:41.274Z,99241.94
2022-09-11T19:50:13.170Z,99237.16
2022-09-11T19:52:41.869Z,99242.44
2022-09-11T19:55:11.295Z,99254.69
2022-09-11T19:57:39.798Z,99251.09
2022-09-11T20:00:11.921Z,99246.19
2022-09-11T20:02:40.387Z,99254.84
2022-09-11T20:05:10.740Z,99249.59
2022-09-11T20:07:39.595Z,99256.81
2022-09-11T20:10:10.819Z,99254.34
2022-09-11T20:12:39.250Z,99251.56
2022-09-11T20:15:13.899Z,99256.63
2022-09-11T20:17:44.529Z,99262.53
2022-09-11T20:20:13.735Z,99249.75
2022-09-11T20:22:42.432Z,99261.22
2022-09-11T20:25:11.417Z,99259.25
2022-09-11T20:27:39.841Z,99257.94
2022-09-11T20:30:11.678Z,99250.72
2022-09-11T20:32:41.334Z,99265.25
2022-09-11T20:35:10.643Z,99262.81
2022-09-11T20:37:39.084Z,99263.13
2022-09-11T20:40:09.772Z,99269.00
2022-09-11T20:42:38.150Z,99265.72
2022-09-11T20:45:08.166Z,99268.00
2022-09-11T20:47:37.965Z,99263.91
2022-09-11T20:50:08.907Z,99267.00
2022-09-11T20:52:39.611Z,99270.13
2022-09-11T20:55:09.464Z,99272.38
2022-09-11T20:57:37.828Z,99269.94
2022-09-11T21:00:08.066Z,99279.44
2022-09-11T21:02:37.853Z,99281.69
2022-09-11T21:05:07.617Z,99283.63
2022-09-11T21:07:36.010Z,99281.16
2022-09-11T21:10:06.086Z,99284.28
2022-09-11T21:12:34.430Z,99287.06
2022-09-11T21:15:02.808Z,99284.28
2022-09-11T21:17:31.174Z,99282.81
2022-09-11T21:20:00.999Z,99285.59
2022-09-11T21:22:29.388Z,99284.47
2022-09-11T21:24:57.766Z,99286.94
2022-09-11T21:27:26.121Z,99278.59
2022-09-11T21:29:55.531Z,99287.78
2022-09-11T21:32:23.896Z,99288.56
2022-09-11T21:34:52.406Z,99288.91
2022-09-11T21:37:22.426Z,99299.19
2022-09-11T21:39:50.791Z,99291.50
2022-09-11T21:42:19.146Z,99300.13
2022-09-11T21:44:47.594Z,99301.59
2022-09-11T21:47:18.631Z,99292.75
2022-09-11T21:49:47.117Z,99299.75
2022-09-11T21:52:15.486Z,99307.59
2022-09-11T21:54:45.241Z,99299.09
2022-09-11T21:57:13.539Z,99299.38
2022-09-11T21:59:41.930Z,99308.06
2022-09-11T22:02:11.753Z,99303.63
2022-09-11T22:04:40.596Z,99308.69
2022-09-11T22:07:09.052Z,99305.41
2022-09-11T22:09:38.185Z,99311.28
2022-09-11T22:12:08.331Z,99316.34
2022-09-11T22:14:37.260Z,99313.38
2022-09-11T22:17:05.790Z,99324.19
2022-09-11T22:19:34.253Z,99325.63
2022-09-11T22:22:02.637Z,99316.78
2022-09-11T22:24:32.436Z,99322.66
2022-09-11T22:27:01.925Z,99318.25
2022-09-11T22:29:31.746Z,99322.47
2022-09-11T22:32:00.093Z,99326.38
2022-09-11T22:34:28.999Z,99325.56
2022-09-11T22:36:57.329Z,99327.53
2022-09-11T22:39:25.952Z,99328.66
2022-09-11T22:41:54.379Z,99319.50
2022-09-11T22:44:22.795Z,99324.22
2022-09-11T22:46:52.558Z,99319.81
2022-09-11T22:49:21.533Z,99318.16
2022-09-11T22:51:50.254Z,99314.88
2022-09-11T22:54:18.849Z,99322.38
2022-09-11T22:56:47.225Z,99314.06
2022-09-11T22:59:15.558Z,99326.00
2022-09-11T23:01:43.965Z,99318.81
2022-09-11T23:04:13.725Z,99312.41
2022-09-11T23:06:59.815Z,99316.03
2022-09-11T23:09:28.216Z,99321.09
2022-09-11T23:11:56.595Z,99323.88
2022-09-11T23:14:24.969Z,99319.09
2022-09-11T23:16:53.403Z,99315.19
2022-09-11T23:19:23.171Z,99317.47
2022-09-11T23:21:52.844Z,99323.88
2022-09-11T23:24:21.830Z,99314.69
2022-09-11T23:26:50.152Z,99314.69
2022-09-11T23:29:18.605Z,99313.88
2022-09-11T23:31:47.642Z,99310.25
2022-09-11T23:34:17.855Z,99312.22
2022-09-11T23:36:47.599Z,99307.97
2022-09-11T23:39:16.302Z,99315.81
2022-09-11T23:41:44.671Z,99303.06
2022-09-11T23:44:13.858Z,99303.06
2022-09-11T23:46:42.285Z,99313.38
2022-09-11T23:49:12.304Z,99320.88
2022-09-11T23:51:41.677Z,99320.03
2022-09-11T23:54:11.396Z,99322.31
2022-09-11T23:56:39.738Z,99322.31
2022-09-11T23:59:08.211Z,99318.72
